Terminal Aerodrome Forecast
Issued by NWS

Home | Current Version | Previous Version | Text Only | Print | Product List | Glossary On
Versions: 1 2 3 4 5 6 7 8 9 10 11 12 13
244
FTUS46 KHNX 112320
TAFMCE
TAF
KMCE 112320Z 1200/1224 32003KT P6SM SCT200
     FM120500 VRB03KT 4SM HZ SKC
     FM121900 VRB03KT P6SM SKC=

USA.gov is the U.S. government's official web portal to all federal, state and local government web resources and services.